createdAt,value
2019-04-20T00:01:19.904Z,41.90
2019-04-20T00:03:47.370Z,41.90
2019-04-20T00:06:19.509Z,42.40
2019-04-20T00:08:55.491Z,42.20
2019-04-20T00:11:29.566Z,42.10
2019-04-20T00:14:02.561Z,42.10
2019-04-20T00:16:25.178Z,42.10
2019-04-20T00:18:58.353Z,42.10
2019-04-20T00:21:46.415Z,42.10
2019-04-20T00:24:24.807Z,42.10
2019-04-20T00:29:40.667Z,42.20
2019-04-20T00:32:06.589Z,42.20
2019-04-20T00:34:33.145Z,42.40
2019-04-20T00:37:00.276Z,42.20
2019-04-20T00:39:31.872Z,42.40
2019-04-20T00:42:06.674Z,42.40
2019-04-20T00:44:37.711Z,42.40
2019-04-20T00:47:16.008Z,42.30
2019-04-20T00:49:48.309Z,42.50
2019-04-20T00:52:32.899Z,42.60
2019-04-20T00:54:39.380Z,42.60
2019-04-20T00:57:21.419Z,42.70
2019-04-20T01:00:03.388Z,42.60
2019-04-20T01:02:25.707Z,42.80
2019-04-20T01:05:04.015Z,42.70
2019-04-20T01:07:39.517Z,42.80
2019-04-20T01:10:05.378Z,42.80
2019-04-20T01:12:38.733Z,42.80
2019-04-20T01:15:11.809Z,42.90
2019-04-20T01:17:41.685Z,42.90
2019-04-20T01:20:11.246Z,42.90
2019-04-20T01:22:51.009Z,43.00
2019-04-20T01:25:20.585Z,42.90
2019-04-20T01:28:04.482Z,43.00
2019-04-20T01:30:25.344Z,42.90
2019-04-20T01:33:02.533Z,43.00
2019-04-20T01:35:38.286Z,42.90
2019-04-20T01:38:16.294Z,43.00
2019-04-20T01:40:23.229Z,43.10
2019-04-20T01:42:55.351Z,43.00
2019-04-20T01:45:29.390Z,43.00
2019-04-20T01:47:59.538Z,43.10
2019-04-20T01:50:33.279Z,43.10
2019-04-20T01:53:11.523Z,43.10
2019-04-20T01:55:45.500Z,43.20
2019-04-20T01:58:35.182Z,43.20
2019-04-20T02:01:17.769Z,43.20
2019-04-20T02:03:50.247Z,43.20
2019-04-20T02:06:21.656Z,43.20
2019-04-20T02:08:58.355Z,43.30
2019-04-20T02:11:28.849Z,43.30
2019-04-20T02:13:58.182Z,43.50
2019-04-20T02:16:34.985Z,43.50
2019-04-20T02:19:13.519Z,43.50
2019-04-20T02:21:48.867Z,43.50
2019-04-20T02:24:04.008Z,43.70
2019-04-20T02:26:32.248Z,43.60
2019-04-20T02:29:29.134Z,43.70
2019-04-20T02:37:49.455Z,44.00
2019-04-20T02:40:15.725Z,44.00
2019-04-20T02:42:50.970Z,44.10
2019-04-20T02:45:24.136Z,44.20
2019-04-20T02:47:47.801Z,44.20
2019-04-20T02:50:38.305Z,44.20
2019-04-20T03:00:20.547Z,44.20
2019-04-20T03:02:38.315Z,44.70
2019-04-20T03:05:08.268Z,44.40
2019-04-20T03:07:49.386Z,44.40
2019-04-20T03:10:19.249Z,44.30
2019-04-20T03:12:50.594Z,44.30
2019-04-20T03:15:24.023Z,44.40
2019-04-20T03:17:51.203Z,44.40
2019-04-20T03:20:29.888Z,44.50
2019-04-20T03:23:26.015Z,44.50
2019-04-20T03:25:53.406Z,44.50
2019-04-20T03:28:19.474Z,44.60
2019-04-20T03:31:33.738Z,44.50
2019-04-20T03:34:03.394Z,44.50
2019-04-20T03:36:18.148Z,44.60
2019-04-20T03:38:36.327Z,44.60
2019-04-20T03:41:05.154Z,45.30
2019-04-20T03:43:22.616Z,44.70
2019-04-20T03:45:59.470Z,44.70
2019-04-20T03:48:41.412Z,45.50
2019-04-20T03:51:14.892Z,45.00
2019-04-20T03:54:07.585Z,45.00
2019-04-20T03:56:47.992Z,45.00
2019-04-20T03:59:25.416Z,45.10
2019-04-20T04:05:00.522Z,45.10
2019-04-20T04:07:22.836Z,45.10
2019-04-20T04:10:04.593Z,45.30
2019-04-20T04:13:01.121Z,45.20
2019-04-20T04:15:31.698Z,45.30
2019-04-20T04:18:07.544Z,45.10
2019-04-20T04:20:43.714Z,45.20
2019-04-20T04:23:24.948Z,45.30
2019-04-20T04:25:55.694Z,45.30
2019-04-20T04:28:27.663Z,45.30
2019-04-20T04:31:06.357Z,45.40
2019-04-20T04:36:03.134Z,45.50
2019-04-20T04:38:39.584Z,45.50
2019-04-20T04:41:17.090Z,45.50
2019-04-20T04:43:41.344Z,45.60
2019-04-20T04:45:51.758Z,45.60
2019-04-20T04:48:28.339Z,45.60
2019-04-20T04:50:59.855Z,45.90
2019-04-20T04:53:38.876Z,45.70
2019-04-20T04:56:02.825Z,45.70
2019-04-20T04:58:27.795Z,45.80
2019-04-20T05:01:07.724Z,45.90
2019-04-20T05:03:45.189Z,45.70
2019-04-20T05:06:29.089Z,45.70
2019-04-20T05:08:49.939Z,45.80
2019-04-20T05:11:15.316Z,45.80
2019-04-20T05:13:54.182Z,45.80
2019-04-20T05:16:38.261Z,45.70
2019-04-20T05:19:13.488Z,45.70
2019-04-20T05:24:59.425Z,45.70
2019-04-20T05:27:46.660Z,45.80
2019-04-20T05:30:01.305Z,45.70
2019-04-20T05:32:44.053Z,45.70
2019-04-20T05:35:26.386Z,45.80
2019-04-20T05:38:01.162Z,45.80
2019-04-20T05:40:30.234Z,45.70
2019-04-20T05:43:15.512Z,45.70
2019-04-20T05:45:42.823Z,45.70
2019-04-20T05:48:19.664Z,45.70
2019-04-20T05:50:49.401Z,45.70
2019-04-20T05:53:31.042Z,45.70
2019-04-20T05:55:50.289Z,45.60
2019-04-20T05:58:26.117Z,45.70
2019-04-20T06:01:01.668Z,45.80
2019-04-20T06:03:26.115Z,45.40
2019-04-20T06:06:03.462Z,45.50
2019-04-20T06:08:53.940Z,45.30
2019-04-20T06:11:01.994Z,45.30
2019-04-20T06:13:32.606Z,45.30
2019-04-20T06:16:18.668Z,45.30
2019-04-20T06:18:48.716Z,45.30
2019-04-20T06:21:57.616Z,45.10
2019-04-20T06:24:37.533Z,45.20
2019-04-20T06:26:59.666Z,44.90
2019-04-20T06:29:23.556Z,45.10
2019-04-20T06:32:08.651Z,45.10
2019-04-20T06:37:03.658Z,45.40
2019-04-20T06:39:41.468Z,45.40
2019-04-20T06:44:57.328Z,45.50
2019-04-20T06:47:19.919Z,45.00
2019-04-20T06:49:38.407Z,43.90
2019-04-20T06:55:04.454Z,42.30
2019-04-20T06:57:40.362Z,41.00
2019-04-20T07:00:14.157Z,40.10
2019-04-20T07:02:46.414Z,39.20
2019-04-20T07:05:11.868Z,37.90
2019-04-20T07:08:00.730Z,37.00
2019-04-20T07:10:33.918Z,36.00
2019-04-20T07:12:41.938Z,35.00
2019-04-20T07:15:17.748Z,34.80
2019-04-20T07:20:53.563Z,33.60
2019-04-20T07:23:21.373Z,32.90
2019-04-20T07:25:52.854Z,32.20
2019-04-20T07:28:19.703Z,31.30
2019-04-20T07:30:53.942Z,30.90
2019-04-20T07:33:24.548Z,30.30
2019-04-20T07:35:50.893Z,29.70
2019-04-20T07:38:30.883Z,29.60
2019-04-20T07:40:56.134Z,28.40
2019-04-20T07:43:28.083Z,27.90
2019-04-20T07:46:03.021Z,27.40
2019-04-20T07:48:31.073Z,27.40
2019-04-20T07:50:54.386Z,26.80
2019-04-20T07:53:29.321Z,26.50
2019-04-20T07:56:04.646Z,26.30
2019-04-20T07:58:28.339Z,26.40
2019-04-20T08:01:24.248Z,26.10
2019-04-20T08:03:55.706Z,25.30
2019-04-20T08:06:29.821Z,25.10
2019-04-20T08:09:08.437Z,24.90
2019-04-20T08:11:50.777Z,25.00
2019-04-20T08:14:22.662Z,24.50
2019-04-20T08:16:58.444Z,24.30
2019-04-20T08:19:17.402Z,24.00
2019-04-20T08:22:08.339Z,24.10
2019-04-20T08:24:17.627Z,23.50
2019-04-20T08:26:41.645Z,23.30
2019-04-20T08:29:42.385Z,23.40
2019-04-20T08:32:51.818Z,23.10
2019-04-20T08:35:31.933Z,23.20
2019-04-20T08:38:14.890Z,23.20
2019-04-20T08:40:34.491Z,23.40
2019-04-20T08:43:13.071Z,23.20
2019-04-20T08:45:45.255Z,23.10
2019-04-20T08:48:14.166Z,22.40
2019-04-20T08:50:45.119Z,22.70
2019-04-20T08:53:21.968Z,22.10
2019-04-20T08:55:43.833Z,22.20
2019-04-20T08:57:58.195Z,22.20
2019-04-20T09:00:33.369Z,22.00
2019-04-20T09:03:09.433Z,22.10
2019-04-20T09:05:42.496Z,21.70
2019-04-20T09:08:14.614Z,21.20
2019-04-20T09:10:49.531Z,21.10
2019-04-20T09:13:18.626Z,20.80
2019-04-20T09:15:38.434Z,20.60
2019-04-20T09:18:22.790Z,20.40
2019-04-20T09:20:53.794Z,20.60
2019-04-20T09:23:35.390Z,20.70
2019-04-20T09:26:10.202Z,20.50
2019-04-20T09:28:38.273Z,20.50
2019-04-20T09:31:35.898Z,21.40
2019-04-20T09:34:14.334Z,20.20
2019-04-20T09:36:49.829Z,20.40
2019-04-20T09:39:35.178Z,20.70
2019-04-20T09:42:05.202Z,20.30
2019-04-20T09:44:37.534Z,20.60
2019-04-20T09:47:07.354Z,20.40
2019-04-20T09:49:49.262Z,20.40
2019-04-20T09:52:22.996Z,20.60
2019-04-20T09:54:59.328Z,20.20
2019-04-20T09:57:33.297Z,20.40
2019-04-20T10:00:01.712Z,20.30
2019-04-20T10:02:24.177Z,19.50
2019-04-20T10:04:49.446Z,19.60
2019-04-20T10:07:23.601Z,19.80
2019-04-20T10:09:52.056Z,19.70
2019-04-20T10:12:22.031Z,20.00
2019-04-20T10:14:53.094Z,19.90
2019-04-20T10:17:23.565Z,19.90
2019-04-20T10:19:53.704Z,19.80
2019-04-20T10:22:24.585Z,19.30
2019-04-20T10:24:55.591Z,19.60
2019-04-20T10:27:26.492Z,19.80
2019-04-20T10:29:57.805Z,19.40
2019-04-20T10:32:34.246Z,19.30
2019-04-20T10:34:59.401Z,19.60
2019-04-20T10:37:33.656Z,19.50
2019-04-20T10:40:04.807Z,19.60
2019-04-20T10:42:36.352Z,19.50
2019-04-20T10:45:08.670Z,19.30
2019-04-20T10:47:39.040Z,20.00
2019-04-20T10:50:09.315Z,19.70
2019-04-20T10:52:41.534Z,19.50
2019-04-20T10:55:12.488Z,19.90
2019-04-20T10:57:43.697Z,20.20
2019-04-20T11:00:15.612Z,20.40
2019-04-20T11:02:47.445Z,20.80
2019-04-20T11:05:17.015Z,21.10
2019-04-20T11:07:46.916Z,21.30
2019-04-20T11:10:22.812Z,21.70
2019-04-20T11:12:48.467Z,22.10
2019-04-20T11:15:18.668Z,22.30
2019-04-20T11:17:49.105Z,22.10
2019-04-20T11:20:19.299Z,22.30
2019-04-20T11:22:50.437Z,22.40
2019-04-20T11:25:20.511Z,22.60
2019-04-20T11:27:50.366Z,22.80
2019-04-20T11:30:20.425Z,22.90
2019-04-20T11:32:50.300Z,23.00
2019-04-20T11:35:28.111Z,23.10
2019-04-20T11:37:51.618Z,23.70
2019-04-20T11:40:21.510Z,23.60
2019-04-20T11:42:51.378Z,23.90
2019-04-20T11:45:22.501Z,23.90
2019-04-20T11:47:53.751Z,23.80
2019-04-20T11:50:25.202Z,23.80
2019-04-20T11:52:55.362Z,23.70
2019-04-20T11:55:26.538Z,23.80
2019-04-20T11:57:56.510Z,23.80
2019-04-20T12:00:46.974Z,23.50
2019-04-20T12:03:33.297Z,24.20
2019-04-20T12:06:02.822Z,24.90
2019-04-20T12:08:31.213Z,24.40
2019-04-20T12:11:18.853Z,24.60
2019-04-20T12:13:34.541Z,24.50
2019-04-20T12:16:05.676Z,24.40
2019-04-20T12:18:35.906Z,25.00
2019-04-20T12:21:05.888Z,24.80
2019-04-20T12:23:36.193Z,24.70
2019-04-20T12:26:06.792Z,25.20
2019-04-20T12:28:37.949Z,25.60
2019-04-20T12:31:12.940Z,25.10
2019-04-20T12:33:40.154Z,25.30
2019-04-20T12:36:10.424Z,25.20
2019-04-20T12:38:41.325Z,25.60
2019-04-20T12:41:12.723Z,25.10
2019-04-20T12:43:43.599Z,25.30
2019-04-20T12:46:16.334Z,25.60
2019-04-20T12:48:44.915Z,25.40
2019-04-20T12:51:15.568Z,25.60
2019-04-20T12:53:46.572Z,25.90
2019-04-20T12:56:16.944Z,26.30
2019-04-20T12:58:47.372Z,25.80
2019-04-20T13:01:20.236Z,25.90
2019-04-20T13:03:49.858Z,25.80
2019-04-20T13:06:21.774Z,25.80
2019-04-20T13:08:55.583Z,26.50
2019-04-20T13:11:34.650Z,25.90
2019-04-20T13:14:44.409Z,26.40
2019-04-20T13:17:14.560Z,26.10
2019-04-20T13:19:45.058Z,26.00
2019-04-20T13:22:15.065Z,25.90
2019-04-20T13:24:45.223Z,26.00
2019-04-20T13:27:16.472Z,26.00
2019-04-20T13:29:49.094Z,25.80
2019-04-20T13:32:18.171Z,25.90
2019-04-20T13:34:47.878Z,25.80
2019-04-20T13:37:18.040Z,26.60
2019-04-20T13:39:49.013Z,25.80
2019-04-20T13:42:23.289Z,25.70
2019-04-20T13:44:50.789Z,25.50
2019-04-20T13:47:20.991Z,25.90
2019-04-20T13:49:51.358Z,25.40
2019-04-20T13:52:22.721Z,25.40
2019-04-20T13:54:53.912Z,25.20
2019-04-20T13:57:30.062Z,25.60
2019-04-20T14:00:02.119Z,25.80
2019-04-20T14:02:42.652Z,25.50
2019-04-20T14:05:12.882Z,25.40
2019-04-20T14:07:43.199Z,25.10
2019-04-20T14:10:13.439Z,25.40
2019-04-20T14:12:53.405Z,25.60
2019-04-20T14:15:15.248Z,25.30
2019-04-20T14:17:46.806Z,25.10
2019-04-20T14:20:20.186Z,25.60
2019-04-20T14:22:49.167Z,25.90
2019-04-20T14:25:19.090Z,25.20
2019-04-20T14:27:48.800Z,25.00
2019-04-20T14:30:19.291Z,24.70
2019-04-20T14:32:50.426Z,24.70
2019-04-20T14:35:20.805Z,24.90
2019-04-20T14:37:52.084Z,25.00
2019-04-20T14:40:22.182Z,24.70
2019-04-20T14:42:53.733Z,24.40
2019-04-20T14:45:24.671Z,24.80
2019-04-20T14:47:54.637Z,25.00
2019-04-20T14:50:25.527Z,25.10
2019-04-20T14:52:55.617Z,25.30
2019-04-20T14:55:25.857Z,25.30
2019-04-20T14:57:57.446Z,25.30
2019-04-20T15:00:53.312Z,24.90
2019-04-20T15:03:37.332Z,25.40
2019-04-20T15:06:07.439Z,25.20
2019-04-20T15:08:38.627Z,25.10
2019-04-20T15:11:09.237Z,25.20
2019-04-20T15:13:40.577Z,25.20
2019-04-20T15:16:10.899Z,25.40
2019-04-20T15:18:45.566Z,25.70
2019-04-20T15:21:17.627Z,25.40
2019-04-20T15:23:47.900Z,25.40
2019-04-20T15:26:18.433Z,25.40
2019-04-20T15:28:48.452Z,25.70
2019-04-20T15:31:18.491Z,25.50
2019-04-20T15:33:48.855Z,25.70
2019-04-20T15:36:20.049Z,25.70
2019-04-20T15:38:51.263Z,25.90
2019-04-20T15:41:21.174Z,25.30
2019-04-20T15:43:51.214Z,25.60
2019-04-20T15:46:21.346Z,25.60
2019-04-20T15:48:52.371Z,25.80
2019-04-20T15:51:23.719Z,25.80
2019-04-20T15:53:53.712Z,25.70
2019-04-20T15:56:24.594Z,25.70
2019-04-20T15:58:54.636Z,25.70
2019-04-20T16:01:28.329Z,25.90
2019-04-20T16:04:05.704Z,25.90
2019-04-20T16:06:36.973Z,25.70
2019-04-20T16:09:08.361Z,25.70
2019-04-20T16:11:39.432Z,25.70
2019-04-20T16:14:09.200Z,25.80
2019-04-20T16:16:40.291Z,25.50
2019-04-20T16:19:19.556Z,25.70
2019-04-20T16:21:41.750Z,26.10
2019-04-20T16:24:15.140Z,25.90
2019-04-20T16:26:49.622Z,25.90
2019-04-20T16:29:19.806Z,25.80
2019-04-20T16:31:50.782Z,25.70
2019-04-20T16:34:21.426Z,25.50
2019-04-20T16:36:53.434Z,25.00
2019-04-20T16:39:24.668Z,25.10
2019-04-20T16:41:54.568Z,25.40
2019-04-20T16:44:25.123Z,25.30
2019-04-20T16:46:56.284Z,25.40
2019-04-20T16:49:26.119Z,25.70
2019-04-20T16:51:57.104Z,25.80
2019-04-20T16:54:27.992Z,25.80
2019-04-20T16:56:57.876Z,25.50
2019-04-20T16:59:28.247Z,25.40
2019-04-20T17:01:58.316Z,25.20
2019-04-20T17:04:28.920Z,25.20
2019-04-20T17:07:20.687Z,25.20
2019-04-20T17:09:51.838Z,25.20
2019-04-20T17:12:23.909Z,25.40
2019-04-20T17:14:55.817Z,25.70
2019-04-20T17:17:25.820Z,25.70
2019-04-20T17:19:55.701Z,25.70
2019-04-20T17:22:25.695Z,25.90
2019-04-20T17:24:55.703Z,26.20
2019-04-20T17:27:48.900Z,26.20
2019-04-20T17:30:59.225Z,26.50
2019-04-20T17:33:54.633Z,26.60
2019-04-20T17:36:20.865Z,26.90
2019-04-20T17:38:52.009Z,27.20
2019-04-20T17:41:37.167Z,27.50
2019-04-20T17:44:05.887Z,27.60
2019-04-20T17:46:34.439Z,27.70
2019-04-20T17:49:12.114Z,27.90
2019-04-20T17:51:47.340Z,27.80
2019-04-20T17:54:22.152Z,28.00
2019-04-20T17:56:52.549Z,28.10
2019-04-20T17:59:22.484Z,28.20
2019-04-20T18:02:25.005Z,28.30
2019-04-20T18:05:22.026Z,28.50
2019-04-20T18:07:48.287Z,28.50
2019-04-20T18:10:18.974Z,28.40
2019-04-20T18:12:37.499Z,28.40
2019-04-20T18:15:21.097Z,28.50
2019-04-20T18:18:23.894Z,28.50
2019-04-20T18:20:52.664Z,28.50
2019-04-20T18:23:29.331Z,28.50
2019-04-20T18:26:10.951Z,28.60
2019-04-20T18:28:39.994Z,28.70
2019-04-20T18:31:08.598Z,28.90
2019-04-20T18:33:38.708Z,28.90
2019-04-20T18:36:13.292Z,28.90
2019-04-20T18:38:48.056Z,29.00
2019-04-20T18:41:23.073Z,29.10
2019-04-20T18:43:48.634Z,29.20
2019-04-20T18:46:34.684Z,29.30
2019-04-20T18:49:06.937Z,29.40
2019-04-20T18:51:17.708Z,29.40
2019-04-20T18:53:50.063Z,29.50
2019-04-20T18:56:25.572Z,29.60
2019-04-20T18:58:51.244Z,29.60
2019-04-20T19:01:29.567Z,29.70
2019-04-20T19:03:54.006Z,29.90
2019-04-20T19:06:23.873Z,29.80
2019-04-20T19:08:55.325Z,29.70
2019-04-20T19:11:27.054Z,29.80
2019-04-20T19:14:33.607Z,29.70
2019-04-20T19:17:09.067Z,29.60
2019-04-20T19:19:47.724Z,29.70
2019-04-20T19:22:14.307Z,29.80
2019-04-20T19:24:47.900Z,29.80
2019-04-20T19:27:19.829Z,29.80
2019-04-20T19:29:56.382Z,29.80
2019-04-20T19:32:35.851Z,29.70
2019-04-20T19:35:01.341Z,29.80
2019-04-20T19:37:33.101Z,29.70
2019-04-20T19:40:08.157Z,29.80
2019-04-20T19:42:42.305Z,29.80
2019-04-20T19:45:26.277Z,29.70
2019-04-20T19:47:48.079Z,29.70
2019-04-20T19:50:44.136Z,29.60
2019-04-20T19:53:03.634Z,30.20
2019-04-20T19:55:26.037Z,29.60
2019-04-20T19:57:56.470Z,29.60
2019-04-20T20:00:14.611Z,29.70
2019-04-20T20:02:45.739Z,29.70
2019-04-20T20:05:17.801Z,29.60
2019-04-20T20:07:52.401Z,29.60
2019-04-20T20:10:20.883Z,29.70
2019-04-20T20:12:55.987Z,29.80
2019-04-20T20:15:27.962Z,29.70
2019-04-20T20:18:12.398Z,29.70
2019-04-20T20:20:47.317Z,29.80
2019-04-20T20:22:58.954Z,29.80
2019-04-20T20:25:32.990Z,30.00
2019-04-20T20:28:14.548Z,29.90
2019-04-20T20:30:48.186Z,30.00
2019-04-20T20:33:23.817Z,30.10
2019-04-20T20:35:46.295Z,30.00
2019-04-20T20:38:16.632Z,30.10
2019-04-20T20:40:52.482Z,30.00
2019-04-20T20:43:20.653Z,30.00
2019-04-20T20:45:55.422Z,30.10
2019-04-20T20:48:29.663Z,30.20
2019-04-20T20:51:07.709Z,30.10
2019-04-20T20:53:37.999Z,30.10
2019-04-20T20:56:01.930Z,30.00
2019-04-20T20:58:37.422Z,30.00
2019-04-20T21:01:04.411Z,30.20
2019-04-20T21:03:32.279Z,30.30
2019-04-20T21:05:58.145Z,30.30
2019-04-20T21:08:29.238Z,30.20
2019-04-20T21:11:00.157Z,30.40
2019-04-20T21:13:35.514Z,30.50
2019-04-20T21:16:09.993Z,30.50
2019-04-20T21:18:52.579Z,30.50
2019-04-20T21:21:19.254Z,30.70
2019-04-20T21:23:45.490Z,30.70
2019-04-20T21:26:12.764Z,30.80
2019-04-20T21:28:40.188Z,30.90
2019-04-20T21:31:14.680Z,30.90
2019-04-20T21:33:42.895Z,31.70
2019-04-20T21:36:18.079Z,31.10
2019-04-20T21:38:45.171Z,31.10
2019-04-20T21:41:18.602Z,31.30
2019-04-20T21:43:48.183Z,31.30
2019-04-20T21:46:18.755Z,31.50
2019-04-20T21:49:04.312Z,31.60
2019-04-20T21:51:32.099Z,31.70
2019-04-20T21:53:56.112Z,31.80
2019-04-20T21:56:24.084Z,32.60
2019-04-20T21:59:00.751Z,32.50
2019-04-20T22:01:34.613Z,32.10
2019-04-20T22:03:58.572Z,32.20
2019-04-20T22:06:29.684Z,32.10
2019-04-20T22:09:01.043Z,32.40
2019-04-20T22:11:33.665Z,32.50
2019-04-20T22:14:12.903Z,32.60
2019-04-20T22:16:41.702Z,32.80
2019-04-20T22:19:22.745Z,32.90
2019-04-20T22:21:53.360Z,32.80
2019-04-20T22:24:28.690Z,33.10
2019-04-20T22:26:54.863Z,33.10
2019-04-20T22:29:14.303Z,33.10
2019-04-20T22:31:51.803Z,33.20
2019-04-20T22:34:20.815Z,33.30
2019-04-20T22:36:48.771Z,33.30
2019-04-20T22:39:31.362Z,33.30
2019-04-20T22:42:01.175Z,33.50
2019-04-20T22:44:28.698Z,33.60
2019-04-20T22:46:58.521Z,33.70
2019-04-20T22:49:44.110Z,33.90
2019-04-20T22:52:13.197Z,34.00
2019-04-20T22:54:47.811Z,34.00
2019-04-20T22:57:13.013Z,34.20
2019-04-20T22:59:44.673Z,34.20
2019-04-20T23:02:08.465Z,34.40
2019-04-20T23:04:38.941Z,34.40
2019-04-20T23:07:10.747Z,34.60
2019-04-20T23:09:48.653Z,34.70
2019-04-20T23:12:17.545Z,34.80
2019-04-20T23:14:44.843Z,34.90
2019-04-20T23:17:18.364Z,34.90
2019-04-20T23:19:51.817Z,35.00
2019-04-20T23:22:19.065Z,35.10
2019-04-20T23:24:49.236Z,35.30
2019-04-20T23:27:25.556Z,35.20
2019-04-20T23:29:51.185Z,35.20
2019-04-20T23:32:22.487Z,35.30
2019-04-20T23:34:57.683Z,35.50
2019-04-20T23:37:29.869Z,35.50
2019-04-20T23:39:56.510Z,35.70
2019-04-20T23:42:37.638Z,35.60
2019-04-20T23:45:28.282Z,35.60
2019-04-20T23:47:58.874Z,35.70
2019-04-20T23:50:58.014Z,35.70
2019-04-20T23:53:13.979Z,35.60
2019-04-20T23:55:31.812Z,35.70
2019-04-20T23:58:06.799Z,35.70
